Nevel'sk, Russia
Current Conditions -  °F | °C
As of 8:30 AM on Saturday 29 Nov 2014 (Local Time) from UHSS Reporting Station
Clear Clear  
Wind Chill:   Ceiling: Unl
Heat Index: 12°   Visibility: 6mi
Dew Point: 10°   Wind: 4mph
Humidity: 92%   Direction: 350°N
Pressure: 30.18"   Gusts: NA
Location:  46.67°N, 141.86°E
Report Text: UHSS 282130Z 35002MPS 9999 SKC M11/M12 Q1022 NOSIG RMKQFE765/1020 19CLRD65
Loading
Personal Weather Stations






























Interactive Weather Map New forecast layout! Learn more

10-Day Weather Forecast

Advertisements
Track Severe Weather on mobile